Time;durP1;ratioP1;P1;durP2;ratioP2;P2;SDS_P1;SDS_P2;PMS_P1;PMS_P2;Temp;Humidity;BMP_temperature;BMP_pressure;BME280_temperature;BME280_humidity;BME280_pressure;Samples;Min_cycle;Max_cycle;Signal;HPM_P1;HPM_P2
2020/12/15 00:01:26;;;;;;;25.15;13.95;;;;;;;10.71;78.31;100629.25;6221418;23;20016;-80
2020/12/15 00:03:53;;;;;;;23.58;13.95;;;;;;;10.70;78.29;100628.41;6220611;23;20020;-80
2020/12/15 00:06:20;;;;;;;24.35;14.25;;;;;;;10.69;78.49;100631.97;6248268;23;20020;-79
2020/12/15 00:08:45;;;;;;;20.33;12.93;;;;;;;10.68;78.35;100635.59;6246529;23;20023;-79
2020/12/15 00:11:19;;;;;;;23.63;12.27;;;;;;;10.68;78.31;100635.59;6221343;23;20046;-80
2020/12/15 00:13:48;;;;;;;19.15;11.52;;;;;;;10.67;78.41;100623.25;6223198;23;20016;-82
2020/12/15 00:16:17;;;;;;;25.83;13.77;;;;;;;10.66;78.42;100640.09;6221380;23;20022;-80
2020/12/15 00:18:44;;;;;;;30.25;16.00;;;;;;;10.66;78.33;100626.84;6222184;23;20022;-80
2020/12/15 00:21:10;;;;;;;25.75;15.50;;;;;;;10.68;78.33;100629.41;6248629;23;20020;-81
2020/12/15 00:23:36;;;;;;;20.27;12.38;;;;;;;10.67;78.50;100628.56;6222464;23;20052;-81
2020/12/15 00:26:02;;;;;;;23.50;13.32;;;;;;;10.68;78.42;100624.97;6248872;23;20017;-81
2020/12/15 00:28:28;;;;;;;20.98;11.68;;;;;;;10.68;78.63;100622.34;6197441;23;20062;-80
2020/12/15 00:30:55;;;;;;;31.17;16.48;;;;;;;10.67;78.56;100623.25;6248411;23;20047;-81
2020/12/15 00:33:21;;;;;;;19.42;11.80;;;;;;;10.69;78.52;100621.38;6221571;23;20035;-79
2020/12/15 00:35:47;;;;;;;15.55;9.70;;;;;;;10.69;78.60;100618.75;6247403;23;20080;-81
2020/12/15 00:38:13;;;;;;;18.35;10.63;;;;;;;10.68;78.46;100617.03;6222188;23;20484;-81
2020/12/15 00:40:53;;;;;;;24.08;13.07;;;;;;;10.68;78.39;100619.69;6200087;23;20024;-81
2020/12/15 00:43:19;;;;;;;19.75;11.10;;;;;;;10.67;78.29;100607.38;6221449;23;20055;-81
2020/12/15 00:45:45;;;;;;;25.48;13.73;;;;;;;10.67;78.55;100607.38;6247291;23;20082;-81
2020/12/15 00:48:13;;;;;;;27.05;13.50;;;;;;;10.67;78.41;100612.66;6222451;23;20026;-81
2020/12/15 00:50:39;;;;;;;25.48;13.23;;;;;;;10.68;78.66;100606.44;6197620;23;20030;-81
2020/12/15 00:53:06;;;;;;;22.27;13.23;;;;;;;10.69;78.37;100616.09;6222459;23;20089;-80
2020/12/15 00:55:32;;;;;;;24.55;13.23;;;;;;;10.67;78.25;100615.31;6221490;23;20020;-80
2020/12/15 00:57:59;;;;;;;16.77;10.60;;;;;;;10.68;78.54;100618.81;6221254;23;20020;-80
2020/12/15 01:00:25;;;;;;;23.10;12.43;;;;;;;10.66;78.48;100610.97;6196177;23;20074;-80
2020/12/15 01:02:51;;;;;;;24.20;12.50;;;;;;;10.66;78.42;100610.97;6196555;23;20111;-81
2020/12/15 01:05:17;;;;;;;22.73;13.23;;;;;;;10.66;78.44;100610.97;6222671;23;20102;-81
2020/12/15 01:07:47;;;;;;;25.73;12.35;;;;;;;10.67;78.60;100612.66;6220757;23;20027;-81
2020/12/15 01:10:15;;;;;;;25.63;13.35;;;;;;;10.68;78.41;100603.78;6222480;23;20020;-81
2020/12/15 01:12:47;;;;;;;20.38;12.07;;;;;;;10.68;78.71;100606.44;6221296;23;20107;-83
2020/12/15 01:15:14;;;;;;;23.05;13.40;;;;;;;10.71;78.69;100608.91;6222418;23;20461;-83
2020/12/15 01:17:41;;;;;;;22.73;13.52;;;;;;;10.70;78.76;100607.22;6196646;23;20024;-80
2020/12/15 01:20:08;;;;;;;23.90;13.20;;;;;;;10.71;78.76;100603.63;6197254;23;20020;-81
2020/12/15 01:22:37;;;;;;;25.05;14.10;;;;;;;10.73;78.69;100606.19;6246582;23;20365;-81
2020/12/15 01:25:08;;;;;;;28.35;15.30;;;;;;;10.75;78.64;100608.78;6221989;23;20051;-80
2020/12/15 01:27:40;;;;;;;31.80;15.30;;;;;;;10.77;78.49;100601.63;6197049;23;20027;-81
2020/12/15 01:30:13;;;;;;;21.52;13.43;;;;;;;10.79;78.66;100610.34;6221281;23;20018;-80
2020/12/15 01:32:59;;;;;;;;;;;;;;;10.80;78.66;100606.78;6248092;23;20529;-81
2020/12/15 01:35:45;;;;;;;26.00;14.98;;;;;;;10.81;78.35;100608.47;6255069;23;19922;-80
2020/12/15 01:38:13;;;;;;;29.42;14.88;;;;;;;10.81;78.60;100605.81;6222051;23;20032;-80
2020/12/15 01:40:48;;;;;;;22.73;13.18;;;;;;;10.79;78.46;100599.75;6222287;23;20134;-81
2020/12/15 01:43:14;;;;;;;22.35;13.52;;;;;;;10.80;78.76;100606.78;6221285;23;20020;-81
2020/12/15 01:45:40;;;;;;;26.73;15.18;;;;;;;10.80;78.67;100612.06;6221925;23;20048;-80
2020/12/15 01:48:07;;;;;;;26.23;15.00;;;;;;;10.77;78.44;100602.47;6221759;23;20016;-81
2020/12/15 01:50:43;;;;;;;20.63;12.05;;;;;;;10.76;78.49;100589.31;6221403;23;20067;-79
2020/12/15 01:53:12;;;;;;;23.15;13.18;;;;;;;10.74;78.36;100607.06;6221859;23;20024;-80
2020/12/15 01:55:45;;;;;;;28.05;14.52;;;;;;;10.73;78.68;100608.00;6221663;23;20086;-81
2020/12/15 01:58:15;;;;;;;21.00;13.23;;;;;;;10.73;78.78;100613.31;6220846;23;20070;-81
2020/12/15 02:00:49;;;;;;;17.60;12.55;;;;;;;10.74;78.63;100609.69;6222944;23;20031;-79
2020/12/15 02:03:18;;;;;;;31.52;15.10;;;;;;;10.74;78.80;100609.69;6238598;23;20016;-80
2020/12/15 02:06:04;;;;;;;28.80;15.82;;;;;;;10.77;78.79;100612.22;6209532;23;20365;-80
2020/12/15 02:08:43;;;;;;;24.90;14.50;;;;;;;10.78;78.67;100603.34;6198596;23;20043;-80
2020/12/15 02:11:10;;;;;;;30.85;16.35;;;;;;;10.80;78.60;100612.06;6220654;23;20024;-81
2020/12/15 02:13:39;;;;;;;24.38;15.02;;;;;;;10.81;78.90;100603.16;6247711;23;20027;-80
2020/12/15 02:16:10;;;;;;;20.95;13.18;;;;;;;10.82;78.54;100607.56;6221246;23;20028;-81
2020/12/15 02:18:40;;;;;;;23.55;13.43;;;;;;;10.81;78.51;100616.41;6247568;23;20066;-81
2020/12/15 02:21:08;;;;;;;33.45;16.30;;;;;;;10.81;78.74;100616.41;6219323;23;20027;-80
2020/12/15 02:23:49;;;;;;;24.80;12.75;;;;;;;10.82;78.61;100620.78;6221016;23;20470;-81
2020/12/15 02:26:45;;;;;;;25.15;14.30;;;;;;;10.81;78.80;100624.38;6219776;23;20044;-81
2020/12/15 02:29:15;;;;;;;32.40;15.68;;;;;;;10.82;78.76;100615.50;6220096;23;20016;-81
2020/12/15 02:31:42;;;;;;;26.80;14.27;;;;;;;10.83;78.67;100623.38;6218940;23;20031;-82
2020/12/15 02:34:09;;;;;;;21.67;11.90;;;;;;;10.83;78.62;100627.78;6247769;23;20035;-80
2020/12/15 02:36:35;;;;;;;26.02;14.35;;;;;;;10.81;78.86;100619.06;6195122;23;20024;-81
2020/12/15 02:39:17;;;;;;;27.27;14.77;;;;;;;10.81;78.93;100619.94;6219893;23;20016;-81
2020/12/15 02:42:10;;;;;;;26.77;15.17;;;;;;;10.83;78.75;100609.25;6200817;23;20094;-80
2020/12/15 02:44:36;;;;;;;25.08;13.98;;;;;;;10.83;78.60;100618.06;6220264;23;20095;-81
2020/12/15 02:47:09;;;;;;;20.92;12.13;;;;;;;10.85;78.88;100625.91;6220462;23;20361;-80
2020/12/15 02:49:40;;;;;;;24.23;13.75;;;;;;;10.84;78.61;100625.06;6247038;23;20016;-79
2020/12/15 02:52:08;;;;;;;27.33;14.55;;;;;;;10.85;78.83;100631.22;6202379;22;20012;-79
2020/12/15 02:54:38;;;;;;;28.75;14.65;;;;;;;10.86;78.74;100641.75;6206410;23;20106;-80
2020/12/15 02:57:04;;;;;;;33.22;16.58;;;;;;;10.89;78.63;100622.22;6245689;23;20547;-80
2020/12/15 02:59:32;;;;;;;23.88;14.05;;;;;;;10.89;78.60;100624.84;6220657;23;20016;-80
2020/12/15 03:02:00;;;;;;;19.88;12.07;;;;;;;10.90;78.85;100629.22;6195393;23;20024;-82
2020/12/15 03:04:26;;;;;;;17.77;11.80;;;;;;;10.91;78.74;100625.63;6220778;23;20074;-80
2020/12/15 03:06:54;;;;;;;22.20;13.25;;;;;;;10.90;78.55;100623.91;6219464;23;20024;-80
2020/12/15 03:09:30;;;;;;;18.13;12.32;;;;;;;10.90;78.58;100622.09;6196365;23;20115;-80
2020/12/15 03:11:59;;;;;;;22.33;12.60;;;;;;;10.90;78.50;100623.91;6218496;23;20027;-81
2020/12/15 03:14:32;;;;;;;19.88;12.45;;;;;;;10.91;78.75;100637.09;6220523;23;20026;-81
2020/12/15 03:17:00;;;;;;;18.85;11.70;;;;;;;10.91;78.60;100634.44;6245213;23;20338;-80
2020/12/15 03:19:30;;;;;;;21.55;13.48;;;;;;;10.91;78.89;100636.25;6196217;23;20016;-81
2020/12/15 03:21:58;;;;;;;22.40;12.75;;;;;;;10.91;78.65;100625.63;6219884;23;20020;-80
2020/12/15 03:24:25;;;;;;;18.50;11.18;;;;;;;10.92;78.56;100632.63;6195414;23;20031;-81
2020/12/15 03:26:52;;;;;;;33.28;16.10;;;;;;;10.93;78.76;100641.47;6194468;23;20408;-81
2020/12/15 03:29:19;;;;;;;28.83;14.45;;;;;;;10.94;78.69;100636.06;6219844;23;20048;-81
2020/12/15 03:31:47;;;;;;;21.92;12.30;;;;;;;10.95;78.67;100648.41;6220865;23;20105;-81
2020/12/15 03:34:20;;;;;;;23.38;13.65;;;;;;;10.96;78.59;100643.94;6222020;23;20028;-80
2020/12/15 03:36:47;;;;;;;22.85;13.23;;;;;;;10.98;78.79;100653.56;6197387;23;20032;-81
2020/12/15 03:39:14;;;;;;;26.38;15.68;;;;;;;10.99;78.89;100649.94;6220894;23;20409;-81
2020/12/15 03:41:41;;;;;;;33.30;16.92;;;;;;;11.02;78.94;100655.09;6196668;23;20024;-81
2020/12/15 03:44:13;;;;;;;19.23;12.38;;;;;;;11.06;78.58;100656.66;6222431;23;20028;-81
2020/12/15 03:46:45;;;;;;;21.20;12.02;;;;;;;11.06;78.41;100656.66;6221307;23;20020;-81
2020/12/15 03:49:15;;;;;;;24.52;13.02;;;;;;;11.05;78.66;100660.25;6221898;23;20047;-81
2020/12/15 03:51:48;;;;;;;25.23;13.98;;;;;;;11.07;78.70;100647.75;6249888;23;20016;-80
2020/12/15 03:54:32;;;;;;;24.88;14.05;;;;;;;11.08;78.65;100652.16;6257590;23;20028;-82
2020/12/15 03:57:16;;;;;;;21.52;12.43;;;;;;;11.08;78.46;100657.44;6260490;23;20024;-81
2020/12/15 04:00:12;;;;;;;23.33;13.83;;;;;;;11.08;78.45;100662.75;6223129;23;20098;-80
2020/12/15 04:02:38;;;;;;;27.48;14.82;;;;;;;11.10;78.72;100658.22;6222122;23;20403;-82
2020/12/15 04:05:17;;;;;;;25.17;14.32;;;;;;;11.12;78.44;100654.66;6222028;23;20027;-80
2020/12/15 04:07:44;;;;;;;21.38;12.65;;;;;;;11.13;78.57;100656.34;6222404;23;20027;-80
2020/12/15 04:10:11;;;;;;;23.67;14.48;;;;;;;11.14;78.38;100658.09;6196842;23;20075;-79
2020/12/15 04:12:48;;;;;;;25.95;13.80;;;;;;;11.10;78.31;100658.22;6221612;23;20023;-81
2020/12/15 04:15:15;;;;;;;30.42;15.77;;;;;;;11.07;77.90;100668.97;6247443;23;20016;-81
2020/12/15 04:17:41;;;;;;;27.10;13.07;;;;;;;11.03;78.01;100662.09;6221326;23;20107;-80
2020/12/15 04:20:08;;;;;;;21.20;13.05;;;;;;;11.01;78.19;100669.28;6222039;23;20027;-80
2020/12/15 04:22:34;;;;;;;24.38;15.45;;;;;;;10.99;78.33;100671.16;6221148;23;20134;-81
2020/12/15 04:25:03;;;;;;;26.65;14.80;;;;;;;10.96;78.24;100666.00;6197467;23;20051;-80
2020/12/15 04:27:36;;;;;;;29.25;14.75;;;;;;;10.94;78.04;100662.56;6221837;23;20331;-80
2020/12/15 04:30:04;;;;;;;23.77;14.23;;;;;;;10.91;78.08;100662.72;6197029;23;20466;-80
2020/12/15 04:32:30;;;;;;;25.20;14.15;;;;;;;10.90;78.19;100671.59;6220945;23;20136;-80
2020/12/15 04:35:06;;;;;;;22.33;13.00;;;;;;;10.91;78.50;100668.03;6221985;23;20051;-80
2020/12/15 04:37:32;;;;;;;33.67;18.08;;;;;;;10.92;78.53;100672.38;6196638;23;20030;-80
2020/12/15 04:40:03;;;;;;;24.08;14.63;;;;;;;10.93;78.41;100666.16;6222187;23;20047;-81
2020/12/15 04:42:38;;;;;;;28.27;15.60;;;;;;;10.94;78.55;100667.84;6197529;23;20024;-80
2020/12/15 04:45:04;;;;;;;31.58;16.60;;;;;;;10.94;78.24;100667.84;6221484;23;20023;-81
2020/12/15 04:47:48;;;;;;;28.23;16.98;;;;;;;10.94;78.27;100667.00;6221827;23;20079;-81
2020/12/15 04:50:24;;;;;;;29.20;16.70;;;;;;;10.93;78.29;100666.16;6222532;23;20123;-81
2020/12/15 04:53:02;;;;;;;30.92;16.70;;;;;;;10.95;78.36;100672.25;6252548;23;20015;-77
2020/12/15 04:55:49;;;;;;;29.00;15.50;;;;;;;10.93;78.43;100687.34;6266955;23;20035;-77
2020/12/15 04:58:20;;;;;;;21.50;13.68;;;;;;;10.94;78.48;100683.75;6266008;23;20362;-77
2020/12/15 05:00:50;;;;;;;27.00;15.10;;;;;;;10.94;78.32;100675.81;6230357;22;20024;-77
2020/12/15 05:03:42;;;;;;;35.92;18.38;;;;;;;10.91;78.31;100684.78;6193272;22;20035;-78
2020/12/15 05:06:15;;;;;;;24.77;15.40;;;;;;;10.88;77.94;100678.78;6246655;23;20034;-77
2020/12/15 05:08:47;;;;;;;27.80;15.98;;;;;;;10.85;78.15;100681.56;6243454;23;20100;-77
2020/12/15 05:11:16;;;;;;;29.17;16.02;;;;;;;10.82;78.20;100674.63;6243136;22;20016;-77
2020/12/15 05:14:02;;;;;;;22.90;14.45;;;;;;;10.82;78.26;100673.78;6224086;23;20055;-78
2020/12/15 05:16:37;;;;;;;25.08;14.68;;;;;;;10.80;78.44;100667.69;6244830;23;20052;-77
2020/12/15 05:19:19;;;;;;;34.10;17.10;;;;;;;10.81;78.32;100669.41;6221523;23;20099;-78
2020/12/15 05:21:59;;;;;;;25.10;15.95;;;;;;;10.79;78.17;100669.47;6243366;23;20012;-77
2020/12/15 05:24:32;;;;;;;28.10;14.95;;;;;;;10.78;78.58;100672.22;6243076;23;20377;-77
2020/12/15 05:27:01;;;;;;;27.10;15.57;;;;;;;10.77;78.21;100670.50;6243645;23;20058;-78
2020/12/15 05:29:39;;;;;;;24.23;14.82;;;;;;;10.75;78.47;100672.34;6243109;23;20091;-78
2020/12/15 05:32:19;;;;;;;38.13;18.58;;;;;;;10.77;78.23;100665.19;6246000;23;20020;-78
2020/12/15 05:35:29;;;;;;;26.67;15.40;;;;;;;10.77;78.48;100670.50;6243542;22;20028;-78
2020/12/15 05:38:24;;;;;;;30.45;16.80;;;;;;;10.77;78.54;100655.44;6190202;22;20083;-77
2020/12/15 05:41:22;;;;;;;23.25;14.40;;;;;;;10.79;78.71;100663.31;6206239;22;20413;-77
2020/12/15 05:43:58;;;;;;;34.38;17.45;;;;;;;10.79;78.58;100668.63;6220412;23;20397;-77
2020/12/15 05:46:30;;;;;;;31.63;17.40;;;;;;;10.79;78.53;100663.31;6218371;23;20026;-78
2020/12/15 05:49:04;;;;;;;28.60;16.20;;;;;;;10.80;78.55;100654.47;6245986;23;20018;-78
2020/12/15 05:51:44;;;;;;;26.27;16.08;;;;;;;10.81;78.46;100664.09;6252551;22;20019;-77
2020/12/15 05:54:14;;;;;;;31.27;16.83;;;;;;;10.80;78.63;100650.00;6248095;22;20102;-78
2020/12/15 05:56:41;;;;;;;28.45;15.55;;;;;;;10.81;78.67;100667.63;6247526;22;20073;-78
2020/12/15 05:59:18;;;;;;;26.60;15.52;;;;;;;10.80;78.96;100659.75;6274922;22;20007;-78
2020/12/15 06:01:45;;;;;;;40.38;19.75;;;;;;;10.81;78.52;100669.41;6247612;22;20073;-77
2020/12/15 06:04:13;;;;;;;27.05;15.38;;;;;;;10.81;78.47;100666.75;6247616;22;20023;-78
2020/12/15 06:06:40;;;;;;;25.85;16.00;;;;;;;10.83;78.59;100667.53;6247713;22;20019;-77
2020/12/15 06:09:11;;;;;;;25.00;14.73;;;;;;;10.83;78.53;100665.75;6247512;22;20016;-77
2020/12/15 06:11:40;;;;;;;29.70;16.65;;;;;;;10.82;78.48;100668.47;6247965;22;20024;-77
2020/12/15 06:14:11;;;;;;;37.53;18.52;;;;;;;10.83;78.38;100664.88;6247660;22;20077;-77
2020/12/15 06:16:38;;;;;;;33.25;17.70;;;;;;;10.81;78.48;100664.09;6247288;22;20019;-77
2020/12/15 06:19:10;;;;;;;29.23;16.73;;;;;;;10.80;78.41;100675.66;6274761;22;20050;-77
2020/12/15 06:21:39;;;;;;;42.17;20.92;;;;;;;10.81;78.28;100672.06;6247092;22;20098;-78
2020/12/15 06:24:05;;;;;;;34.00;18.10;;;;;;;10.80;78.34;100667.69;6247932;22;20400;-77
2020/12/15 06:26:33;;;;;;;34.90;18.92;;;;;;;10.78;78.44;100677.50;6221763;22;20030;-77
2020/12/15 06:29:05;;;;;;;46.38;21.27;;;;;;;10.77;78.63;100670.50;6274554;22;20041;-78
2020/12/15 06:31:33;;;;;;;31.52;17.95;;;;;;;10.78;78.52;100677.50;6274060;22;20023;-77
2020/12/15 06:34:02;;;;;;;30.25;18.10;;;;;;;10.78;78.47;100682.81;6247270;22;20019;-77
2020/12/15 06:36:33;;;;;;;40.13;20.67;;;;;;;10.78;78.50;100677.50;6247288;22;20081;-77
2020/12/15 06:39:00;;;;;;;28.67;16.02;;;;;;;10.78;78.55;100680.16;6247501;22;20011;-78
2020/12/15 06:41:27;;;;;;;42.58;22.23;;;;;;;10.78;78.61;100682.81;6247286;22;20077;-77
2020/12/15 06:44:09;;;;;;;31.67;18.27;;;;;;;10.79;78.40;100685.38;6274515;22;20038;-77
2020/12/15 06:46:36;;;;;;;40.92;20.48;;;;;;;10.80;78.56;100702.13;6247172;22;20069;-78
2020/12/15 06:49:09;;;;;;;40.47;20.65;;;;;;;10.79;78.45;100685.38;6274509;22;20027;-78
2020/12/15 06:51:35;;;;;;;30.98;19.55;;;;;;;10.80;78.52;100686.25;6247148;22;20047;-77
2020/12/15 06:54:05;;;;;;;38.97;21.35;;;;;;;10.80;78.66;100686.25;6247160;22;20467;-77
2020/12/15 06:56:32;;;;;;;37.03;20.55;;;;;;;10.80;78.71;100686.25;6247069;22;20050;-77
2020/12/15 06:59:04;;;;;;;33.47;19.08;;;;;;;10.81;78.52;100688.81;6274381;22;20367;-77
2020/12/15 07:01:30;;;;;;;31.77;16.73;;;;;;;10.84;78.74;100693.09;6273876;22;20468;-77
2020/12/15 07:03:58;;;;;;;30.58;18.00;;;;;;;10.83;78.76;100692.25;6247718;22;20015;-77
2020/12/15 07:06:25;;;;;;;35.00;20.52;;;;;;;10.85;78.81;100689.50;6274326;22;20016;-77
2020/12/15 07:08:59;;;;;;;38.20;20.42;;;;;;;10.85;78.98;100695.69;6277008;22;20453;-77
2020/12/15 07:11:27;;;;;;;47.90;22.58;;;;;;;10.87;78.82;100698.25;6276479;22;20023;-77
2020/12/15 07:14:00;;;;;;;46.00;22.42;;;;;;;10.89;78.76;100701.69;6276553;22;20043;-78
2020/12/15 07:16:27;;;;;;;51.65;23.80;;;;;;;10.90;78.82;100704.25;6249506;22;20357;-78
2020/12/15 07:18:54;;;;;;;35.45;20.75;;;;;;;10.91;78.86;100705.13;6249080;22;20023;-77
2020/12/15 07:21:21;;;;;;;53.15;23.58;;;;;;;10.94;78.49;100715.56;6277021;22;20020;-77
2020/12/15 07:23:48;;;;;;;51.58;24.05;;;;;;;10.95;78.83;100708.50;6278026;22;20043;-77
2020/12/15 07:26:15;;;;;;;57.05;25.00;;;;;;;10.97;78.84;100709.28;6281044;22;20027;-77
2020/12/15 07:28:44;;;;;;;39.13;20.85;;;;;;;10.99;78.81;100713.56;6251921;22;20404;-77
2020/12/15 07:31:11;;;;;;;45.58;23.02;;;;;;;11.01;78.64;100716.97;6249795;22;20098;-77
2020/12/15 07:33:38;;;;;;;41.15;23.02;;;;;;;11.03;78.90;100714.25;6224077;22;20027;-77
2020/12/15 07:36:16;;;;;;;44.83;23.10;;;;;;;11.04;78.66;100716.84;6247988;22;20026;-77
2020/12/15 07:38:46;;;;;;;47.47;23.27;;;;;;;11.04;78.82;100726.59;6249424;22;20019;-77
2020/12/15 07:41:14;;;;;;;45.60;24.55;;;;;;;11.07;78.94;100715.81;6281587;22;20026;-77
2020/12/15 07:43:54;;;;;;;42.20;22.88;;;;;;;11.10;78.83;100715.69;6284626;22;20046;-77
2020/12/15 07:46:23;;;;;;;60.72;26.48;;;;;;;11.10;78.73;100716.53;6288117;22;20071;-78
2020/12/15 07:48:53;;;;;;;43.90;23.90;;;;;;;11.13;78.64;100719.97;6260518;22;20471;-78
2020/12/15 07:51:19;;;;;;;50.17;25.52;;;;;;;11.15;78.94;100723.41;6284278;22;20016;-78
2020/12/15 07:53:49;;;;;;;40.78;22.02;;;;;;;11.15;78.68;100710.13;6281789;22;20023;-78
2020/12/15 07:56:16;;;;;;;47.50;25.52;;;;;;;11.18;78.55;100702.91;6255836;22;20016;-78
2020/12/15 07:58:44;;;;;;;41.22;22.80;;;;;;;11.20;78.54;100705.47;6279948;22;20019;-79
2020/12/15 08:01:11;;;;;;;54.40;26.23;;;;;;;11.20;78.40;100705.47;6253646;22;20022;-78
2020/12/15 08:03:37;;;;;;;38.70;21.35;;;;;;;11.21;78.29;100697.44;6278888;22;20098;-78
2020/12/15 08:06:08;;;;;;;52.25;26.25;;;;;;;11.22;78.28;100701.81;6279177;22;20019;-79
2020/12/15 08:08:35;;;;;;;46.63;25.90;;;;;;;11.22;78.31;100716.84;6277754;22;20094;-78
2020/12/15 08:11:01;;;;;;;59.17;27.85;;;;;;;11.25;78.60;100729.97;6250760;22;20349;-79
2020/12/15 08:13:27;;;;;;;41.40;23.42;;;;;;;11.26;78.44;100742.28;6288540;22;20055;-79
2020/12/15 08:15:54;;;;;;;46.67;24.92;;;;;;;11.28;78.55;100751.00;6287758;22;20464;-79
2020/12/15 08:18:21;;;;;;;55.55;27.08;;;;;;;11.31;78.57;100756.19;6251103;22;20026;-78
2020/12/15 08:20:53;;;;;;;48.67;26.25;;;;;;;11.36;78.62;100759.47;6250227;22;20156;-78
2020/12/15 08:23:22;;;;;;;54.42;28.38;;;;;;;11.39;78.58;100769.91;6251376;22;20019;-78
2020/12/15 08:25:48;;;;;;;63.33;28.90;;;;;;;11.43;78.68;100776.78;6277513;22;20026;-78
2020/12/15 08:28:21;;;;;;;62.92;28.63;;;;;;;11.44;78.66;100778.50;6276309;22;20020;-79
2020/12/15 08:30:53;;;;;;;51.38;28.08;;;;;;;11.46;78.54;100781.06;6249433;22;20087;-78
2020/12/15 08:33:28;;;;;;;42.35;24.58;;;;;;;11.49;78.67;100781.78;6249712;22;20035;-78
2020/12/15 08:35:56;;;;;;;67.15;31.88;;;;;;;11.50;78.70;100783.47;6277355;22;20015;-78
2020/12/15 08:38:25;;;;;;;50.97;27.15;;;;;;;11.54;78.79;100793.94;6247085;22;20023;-78
2020/12/15 08:40:59;;;;;;;58.95;30.00;;;;;;;11.57;78.73;100793.81;6275071;22;20344;-78
2020/12/15 08:43:25;;;;;;;57.42;29.85;;;;;;;11.59;78.71;100791.94;6274139;22;20067;-79
2020/12/15 08:45:52;;;;;;;63.92;30.45;;;;;;;11.61;78.85;100796.22;6271149;22;20024;-79
2020/12/15 08:48:22;;;;;;;65.50;31.88;;;;;;;11.64;78.76;100797.84;6272031;22;20527;-78
2020/12/15 08:50:48;;;;;;;61.40;30.70;;;;;;;11.66;78.63;100799.50;6271977;22;20477;-78
2020/12/15 08:53:16;;;;;;;66.45;31.83;;;;;;;11.69;78.63;100798.47;6245620;22;20024;-78
2020/12/15 08:55:45;;;;;;;68.13;30.58;;;;;;;11.73;78.52;100797.38;6247627;22;20023;-79
2020/12/15 08:58:12;;;;;;;55.42;28.85;;;;;;;11.76;78.82;100791.09;6266780;22;20027;-79
2020/12/15 09:00:44;;;;;;;51.63;28.20;;;;;;;11.77;78.74;100785.72;6249561;22;20020;-78
2020/12/15 09:03:12;;;;;;;56.55;29.73;;;;;;;11.79;78.59;100789.13;6291795;22;20016;-79
2020/12/15 09:05:52;;;;;;;55.90;27.95;;;;;;;11.82;78.63;100799.56;6252279;22;20020;-79
2020/12/15 09:08:19;;;;;;;67.43;30.65;;;;;;;11.83;78.59;100803.97;6276820;22;20020;-79
2020/12/15 09:10:46;;;;;;;64.47;29.65;;;;;;;11.84;78.61;100803.00;6274925;22;20012;-78
2020/12/15 09:13:13;;;;;;;58.97;30.08;;;;;;;11.85;78.54;100810.03;6250411;22;20019;-79
2020/12/15 09:15:46;;;;;;;55.05;27.52;;;;;;;11.88;78.53;100815.22;6223539;22;20024;-79
2020/12/15 09:18:14;;;;;;;69.47;30.92;;;;;;;11.92;78.56;100821.22;6250193;22;20524;-78
2020/12/15 09:20:40;;;;;;;67.50;31.20;;;;;;;11.95;78.40;100825.53;6248885;22;20488;-78
2020/12/15 09:23:06;;;;;;;66.22;30.85;;;;;;;11.96;78.50;100832.53;6278533;22;20392;-79
2020/12/15 09:25:32;;;;;;;58.88;29.48;;;;;;;12.00;78.30;100829.66;6250116;22;20106;-78
2020/12/15 09:27:59;;;;;;;52.17;27.33;;;;;;;12.00;78.32;100828.81;6248364;22;20363;-78
2020/12/15 09:30:25;;;;;;;66.05;30.20;;;;;;;11.99;78.40;100827.09;6277451;22;20026;-79
2020/12/15 09:32:51;;;;;;;56.78;28.02;;;;;;;12.00;78.46;100834.13;6278945;22;20445;-79
2020/12/15 09:35:17;;;;;;;63.78;29.60;;;;;;;12.00;78.28;100844.75;6264432;22;20023;-79
2020/12/15 09:37:44;;;;;;;48.22;25.88;;;;;;;12.01;78.32;100846.44;6226381;22;20110;-79
2020/12/15 09:40:11;;;;;;;58.30;29.73;;;;;;;12.01;78.44;100851.75;6278240;22;20012;-78
2020/12/15 09:42:41;;;;;;;56.20;28.20;;;;;;;12.03;78.41;100853.38;6248991;22;20019;-78
2020/12/15 09:45:08;;;;;;;65.72;30.25;;;;;;;12.04;78.41;100851.63;6277650;22;20045;-79
2020/12/15 09:47:39;;;;;;;73.18;31.20;;;;;;;12.07;78.40;100851.44;6256323;22;20016;-78
2020/12/15 09:50:05;;;;;;;62.40;31.00;;;;;;;12.10;78.40;100848.63;6289336;22;20018;-79
2020/12/15 09:52:31;;;;;;;60.17;29.55;;;;;;;12.12;78.17;100854.72;6258554;22;20047;-78
2020/12/15 09:54:57;;;;;;;45.55;25.88;;;;;;;12.12;78.21;100865.34;6236659;22;20019;-80
2020/12/15 09:57:24;;;;;;;55.25;28.55;;;;;;;12.14;78.24;100858.16;6276795;22;20046;-79
2020/12/15 09:59:50;;;;;;;79.35;34.50;;;;;;;12.16;78.35;100866.91;6280320;22;20011;-79
2020/12/15 10:02:16;;;;;;;49.13;28.25;;;;;;;12.17;78.14;100858.00;6222424;22;20022;-79
2020/12/15 10:04:43;;;;;;;62.80;30.52;;;;;;;12.17;78.15;100850.03;6275684;22;20020;-79
2020/12/15 10:07:09;;;;;;;67.70;32.58;;;;;;;12.21;78.30;100851.59;6247173;22;20106;-79
2020/12/15 10:09:35;;;;;;;71.47;31.75;;;;;;;12.24;77.98;100843.47;6249934;22;20011;-79
2020/12/15 10:12:01;;;;;;;75.70;34.80;;;;;;;12.29;78.09;100845.03;6224525;22;20020;-79
2020/12/15 10:14:29;;;;;;;55.65;29.58;;;;;;;12.33;78.20;100842.13;6247433;22;20031;-79
2020/12/15 10:16:55;;;;;;;67.80;32.28;;;;;;;12.38;78.17;100849.88;6276062;22;20020;-79
2020/12/15 10:19:21;;;;;;;47.60;27.75;;;;;;;12.43;78.14;100848.69;6276612;22;20515;-79
2020/12/15 10:21:47;;;;;;;46.88;27.52;;;;;;;12.50;78.17;100854.50;6251589;22;20019;-79
2020/12/15 10:24:13;;;;;;;60.03;29.67;;;;;;;12.56;78.00;100858.66;6250644;22;20054;-79
2020/12/15 10:26:39;;;;;;;49.28;27.55;;;;;;;12.58;77.76;100868.28;6250062;22;20023;-79
2020/12/15 10:29:05;;;;;;;55.13;28.73;;;;;;;12.58;77.90;100862.97;6276679;22;20065;-79
2020/12/15 10:31:33;;;;;;;52.28;27.77;;;;;;;12.59;77.80;100854.03;6275250;22;20054;-80
2020/12/15 10:33:59;;;;;;;40.75;24.55;;;;;;;12.57;77.79;100850.59;6278962;22;20020;-80
2020/12/15 10:36:26;;;;;;;53.78;27.85;;;;;;;12.56;77.83;100854.19;6278046;22;20015;-79
2020/12/15 10:38:53;;;;;;;46.35;26.38;;;;;;;12.58;77.77;100860.31;6257671;22;20019;-79
2020/12/15 10:41:25;;;;;;;53.63;28.83;;;;;;;12.62;77.99;100853.00;6251053;22;20077;-78
2020/12/15 10:43:51;;;;;;;52.45;28.92;;;;;;;12.68;77.89;100844.72;6275077;22;20392;-78
2020/12/15 10:46:23;;;;;;;46.28;26.20;;;;;;;12.73;77.82;100845.31;6279921;22;20019;-79
2020/12/15 10:48:49;;;;;;;36.13;22.02;;;;;;;12.75;77.65;100842.56;6281380;22;20019;-79
2020/12/15 10:51:15;;;;;;;42.65;25.48;;;;;;;12.73;77.68;100849.78;6279973;22;20047;-79
2020/12/15 10:53:41;;;;;;;42.30;24.98;;;;;;;12.72;77.67;100858.69;6248526;22;20055;-78
2020/12/15 10:56:07;;;;;;;46.38;25.95;;;;;;;12.71;77.66;100856.97;6281543;22;20106;-80
2020/12/15 10:58:34;;;;;;;51.40;27.17;;;;;;;12.72;77.68;100854.22;6281240;22;20460;-79
2020/12/15 11:01:00;;;;;;;41.28;23.98;;;;;;;12.69;77.78;100859.69;6278179;22;20011;-78
2020/12/15 11:03:26;;;;;;;46.40;27.17;;;;;;;12.69;77.88;100854.38;6222822;22;20020;-78
2020/12/15 11:05:52;;;;;;;48.08;27.17;;;;;;;12.72;77.90;100853.38;6274846;22;20019;-79
2020/12/15 11:08:18;;;;;;;46.28;26.33;;;;;;;12.76;77.88;100854.94;6248015;22;20062;-79
2020/12/15 11:10:44;;;;;;;46.10;26.88;;;;;;;12.77;78.08;100862.81;6274733;22;20043;-78
2020/12/15 11:13:10;;;;;;;47.10;27.25;;;;;;;12.75;77.58;100869.16;6273745;22;20016;-79
2020/12/15 11:15:36;;;;;;;50.70;28.45;;;;;;;12.75;77.60;100863.84;6248662;22;20022;-78
2020/12/15 11:18:05;;;;;;;47.90;28.00;;;;;;;12.75;77.68;100859.41;6275831;22;20015;-79
2020/12/15 11:20:33;;;;;;;43.60;27.15;;;;;;;12.76;77.80;100871.72;6278499;22;20035;-79
2020/12/15 11:23:01;;;;;;;54.50;29.30;;;;;;;12.75;77.73;100874.47;6278335;22;20024;-79